Time;durP1;ratioP1;P1;durP2;ratioP2;P2;SDS_P1;SDS_P2;PMS_P1;PMS_P2;Temp;Humidity;BMP_temperature;BMP_pressure;BME280_temperature;BME280_humidity;BME280_pressure;Samples;Min_cycle;Max_cycle;Signal;HPM_P1;HPM_P2
2021/10/30 00:00:40;;;;;;;2.05;1.50;;;17.50;72.80;;;;;;10338350;28;20062;-58
2021/10/30 00:05:41;;;;;;;2.30;1.73;;;17.50;72.80;;;;;;10358384;28;20061;-58
2021/10/30 00:10:43;;;;;;;3.58;1.80;;;17.50;72.80;;;;;;10336006;28;20034;-58
2021/10/30 00:15:44;;;;;;;2.78;1.67;;;17.50;72.70;;;;;;10335848;28;20048;-58
2021/10/30 00:20:45;;;;;;;2.45;1.88;;;17.50;72.70;;;;;;10338083;28;20125;-57
2021/10/30 00:25:45;;;;;;;3.53;1.80;;;17.50;72.80;;;;;;10350717;28;20498;-58
2021/10/30 00:30:46;;;;;;;2.60;1.50;;;17.50;72.70;;;;;;10338816;28;20026;-58
2021/10/30 00:35:47;;;;;;;2.58;1.73;;;17.50;72.70;;;;;;10335103;28;20066;-58
2021/10/30 00:40:48;;;;;;;2.97;1.65;;;17.50;72.70;;;;;;10333420;28;20133;-59
2021/10/30 00:45:48;;;;;;;2.60;1.85;;;17.50;72.80;;;;;;10334593;28;20463;-58
2021/10/30 00:50:49;;;;;;;2.58;1.95;;;17.50;72.80;;;;;;10334318;28;20023;-59
2021/10/30 00:55:51;;;;;;;2.35;1.40;;;17.50;72.70;;;;;;10332900;28;20041;-58
2021/10/30 01:00:53;;;;;;;2.00;1.55;;;17.40;72.70;;;;;;10336575;28;20026;-57
2021/10/30 01:05:54;;;;;;;2.13;1.70;;;17.40;72.70;;;;;;10373956;28;20401;-57
2021/10/30 01:10:55;;;;;;;2.70;1.83;;;17.40;72.60;;;;;;10372990;28;20153;-59
2021/10/30 01:15:55;;;;;;;2.92;1.85;;;17.40;72.60;;;;;;10372912;28;20033;-56
2021/10/30 01:20:56;;;;;;;2.90;1.70;;;17.40;72.60;;;;;;10338795;28;20057;-58
2021/10/30 01:26:01;;;;;;;2.13;1.50;;;17.40;72.60;;;;;;10350004;28;20033;-58
2021/10/30 01:31:02;;;;;;;4.35;2.17;;;17.40;72.60;;;;;;10335240;28;20506;-58
2021/10/30 01:36:07;;;;;;;3.20;2.25;;;17.40;72.60;;;;;;10332818;28;20036;-57
2021/10/30 01:41:08;;;;;;;2.88;1.67;;;17.40;72.60;;;;;;10332231;28;20050;-58
2021/10/30 01:46:09;;;;;;;2.55;1.65;;;17.40;72.60;;;;;;10331274;28;20026;-58
2021/10/30 01:51:09;;;;;;;2.35;1.83;;;17.40;72.60;;;;;;10331121;28;20096;-58
2021/10/30 01:56:11;;;;;;;3.10;1.60;;;17.40;73.20;;;;;;10332175;28;20379;-57
2021/10/30 02:01:12;;;;;;;2.80;1.65;;;17.40;72.60;;;;;;10338489;28;20030;-58
2021/10/30 02:06:13;;;;;;;2.50;1.30;;;17.40;72.60;;;;;;10372408;28;20076;-58
2021/10/30 02:11:14;;;;;;;2.63;1.80;;;17.30;72.60;;;;;;10372491;28;20145;-57
2021/10/30 02:16:14;;;;;;;2.45;1.55;;;17.30;72.50;;;;;;10336078;28;20037;-58
2021/10/30 02:21:15;;;;;;;2.67;1.50;;;17.40;72.50;;;;;;10340137;28;20084;-58
2021/10/30 02:26:16;;;;;;;3.92;1.45;;;17.40;72.30;;;;;;10359403;28;20105;-58
2021/10/30 02:31:16;;;;;;;2.13;1.50;;;17.40;72.20;;;;;;10340955;28;20169;-57
2021/10/30 02:36:17;;;;;;;2.55;1.80;;;17.40;72.20;;;;;;10338082;28;20526;-59
2021/10/30 02:41:18;;;;;;;2.20;1.50;;;17.40;72.20;;;;;;10321492;28;20502;-58
2021/10/30 02:46:19;;;;;;;1.92;1.40;;;17.40;72.20;;;;;;10339106;28;20098;-58
2021/10/30 02:51:19;;;;;;;2.45;1.75;;;17.40;72.30;;;;;;10352368;28;20035;-58
2021/10/30 02:56:20;;;;;;;2.72;1.77;;;17.40;72.30;;;;;;10338822;28;20105;-58
2021/10/30 03:01:21;;;;;;;2.40;1.42;;;17.40;72.30;;;;;;10346443;28;20038;-58
2021/10/30 03:06:22;;;;;;;2.42;1.63;;;17.40;72.20;;;;;;10379218;28;20033;-57
2021/10/30 03:11:23;;;;;;;1.98;1.55;;;17.40;72.20;;;;;;10378760;28;20124;-58
2021/10/30 03:16:24;;;;;;;3.28;1.67;;;17.40;72.20;;;;;;10377425;28;20038;-58
2021/10/30 03:21:25;;;;;;;1.98;0.90;;;17.40;72.20;;;;;;10340114;28;20518;-59
2021/10/30 03:26:26;;;;;;;1.92;1.52;;;17.40;72.10;;;;;;10357229;28;20030;-58
2021/10/30 03:31:27;;;;;;;3.03;1.60;;;17.40;72.10;;;;;;10337045;28;20034;-58
2021/10/30 03:36:27;;;;;;;2.25;1.15;;;17.40;72.10;;;;;;10335915;28;20057;-58
2021/10/30 03:41:28;;;;;;;1.98;1.35;;;17.40;72.10;;;;;;10340634;28;20168;-58
2021/10/30 03:46:29;;;;;;;2.50;1.60;;;17.40;72.00;;;;;;10346549;28;20101;-58
2021/10/30 03:51:29;;;;;;;2.22;1.30;;;17.40;72.00;;;;;;10336748;28;20523;-58
2021/10/30 03:56:30;;;;;;;2.20;1.42;;;17.40;72.00;;;;;;10336559;28;20031;-58
2021/10/30 04:01:31;;;;;;;2.33;1.20;;;17.40;72.00;;;;;;10345437;28;20034;-58
2021/10/30 04:06:31;;;;;;;3.33;1.70;;;17.40;72.00;;;;;;10376821;28;20053;-59
2021/10/30 04:11:32;;;;;;;1.67;1.38;;;17.40;71.90;;;;;;10376472;28;20077;-58
2021/10/30 04:16:34;;;;;;;1.85;1.40;;;17.40;71.90;;;;;;10351966;28;20069;-57
2021/10/30 04:21:35;;;;;;;1.88;1.10;;;17.40;71.90;;;;;;10348798;28;20042;-58
2021/10/30 04:26:36;;;;;;;1.70;1.38;;;17.50;71.90;;;;;;10336599;28;20034;-56
2021/10/30 04:31:37;;;;;;;1.90;1.10;;;17.40;71.80;;;;;;10359987;28;20030;-57
2021/10/30 04:36:37;;;;;;;2.50;1.35;;;17.40;71.90;;;;;;10369374;28;20497;-58
2021/10/30 04:41:41;;;;;;;2.40;1.30;;;17.50;71.90;;;;;;10373853;28;20137;-57
2021/10/30 04:46:43;;;;;;;1.80;1.27;;;17.60;71.40;;;;;;10375120;28;20029;-58
2021/10/30 04:51:44;;;;;;;2.35;1.48;;;17.80;70.80;;;;;;10373837;28;20046;-58
2021/10/30 04:56:45;;;;;;;1.85;1.27;;;18.00;70.00;;;;;;10372234;28;20052;-58
2021/10/30 05:01:46;;;;;;;1.52;1.15;;;18.20;69.40;;;;;;10372773;28;20113;-57
2021/10/30 05:06:46;;;;;;;2.67;1.50;;;18.30;69.10;;;;;;10372619;28;20053;-58
2021/10/30 05:11:47;;;;;;;2.17;1.30;;;18.40;68.90;;;;;;10372200;28;20609;-58
2021/10/30 05:16:48;;;;;;;3.92;1.65;;;18.40;69.00;;;;;;10370227;28;20069;-56
2021/10/30 05:21:49;;;;;;;2.15;1.50;;;18.40;69.00;;;;;;10347973;28;20113;-58
2021/10/30 05:26:50;;;;;;;2.25;1.60;;;18.40;69.10;;;;;;10362139;28;20500;-58
2021/10/30 05:31:51;;;;;;;2.75;1.80;;;18.40;69.10;;;;;;10367494;28;20490;-57
2021/10/30 05:36:53;;;;;;;4.15;2.13;;;18.40;69.10;;;;;;10360828;28;20121;-57
2021/10/30 05:41:54;;;;;;;2.83;1.75;;;18.50;69.40;;;;;;10362391;28;20060;-59
2021/10/30 05:46:55;;;;;;;4.70;2.00;;;18.60;69.50;;;;;;10345011;28;20036;-58
2021/10/30 05:51:55;;;;;;;3.88;1.90;;;18.50;70.00;;;;;;10331058;28;20474;-58
2021/10/30 05:56:56;;;;;;;5.40;2.08;;;18.60;70.00;;;;;;10365268;28;20385;-57
2021/10/30 06:01:57;;;;;;;4.38;2.55;;;18.60;71.50;;;;;;10363259;28;20485;-59
2021/10/30 06:06:58;;;;;;;3.25;2.28;;;18.60;70.90;;;;;;10372714;28;20093;-58
2021/10/30 06:11:59;;;;;;;4.80;2.00;;;18.60;71.20;;;;;;10372420;28;20470;-56
2021/10/30 06:17:00;;;;;;;8.18;2.03;;;18.60;71.60;;;;;;10370140;28;20085;-57
2021/10/30 06:22:01;;;;;;;6.85;2.53;;;18.60;72.10;;;;;;10349782;28;20037;-57
2021/10/30 06:27:02;;;;;;;12.43;2.58;;;18.60;71.90;;;;;;10362726;28;20069;-58
2021/10/30 06:32:03;;;;;;;11.10;2.83;;;18.50;72.70;;;;;;10370538;28;20347;-58
2021/10/30 06:37:05;;;;;;;5.72;2.20;;;18.40;72.80;;;;;;10371828;28;20113;-56
2021/10/30 06:42:06;;;;;;;5.47;2.10;;;18.30;72.60;;;;;;10371689;28;20057;-58
2021/10/30 06:47:07;;;;;;;7.13;2.50;;;18.20;72.70;;;;;;10359893;28;20034;-57
2021/10/30 06:52:09;;;;;;;15.85;3.95;;;18.20;73.10;;;;;;10353201;28;20364;-57
2021/10/30 06:57:09;;;;;;;9.07;2.67;;;18.20;72.80;;;;;;10364264;28;20069;-57
2021/10/30 07:02:11;;;;;;;12.68;3.03;;;18.30;73.10;;;;;;10352374;28;20478;-56
2021/10/30 07:07:12;;;;;;;9.02;2.95;;;18.30;73.50;;;;;;10357571;28;20023;-56
2021/10/30 07:12:12;;;;;;;13.18;3.53;;;18.20;73.40;;;;;;10361585;28;20029;-57
2021/10/30 07:17:13;;;;;;;7.40;2.58;;;18.20;73.50;;;;;;10347942;28;20038;-58
2021/10/30 07:22:14;;;;;;;7.85;2.55;;;18.10;74.00;;;;;;10357433;28;20105;-58
2021/10/30 07:27:17;;;;;;;12.35;2.65;;;18.00;73.50;;;;;;10364383;28;20025;-58
2021/10/30 07:32:18;;;;;;;7.80;2.97;;;18.10;73.50;;;;;;10358072;28;20019;-58
2021/10/30 07:37:19;;;;;;;12.90;2.83;;;18.10;73.60;;;;;;10346568;28;20034;-57
2021/10/30 07:42:20;;;;;;;6.03;2.30;;;18.20;73.50;;;;;;10360674;28;20430;-60
2021/10/30 07:47:21;;;;;;;22.30;3.83;;;18.10;73.70;;;;;;10359843;28;20470;-57
2021/10/30 07:52:22;;;;;;;6.85;2.60;;;18.10;74.00;;;;;;10376659;28;20440;-58
2021/10/30 07:57:23;;;;;;;10.85;2.38;;;18.10;74.40;;;;;;10376462;28;20105;-58
2021/10/30 08:02:24;;;;;;;13.90;3.05;;;18.00;73.70;;;;;;10369951;28;20113;-58
2021/10/30 08:07:25;;;;;;;11.95;3.20;;;18.00;73.90;;;;;;10367196;28;20041;-57
2021/10/30 08:12:25;;;;;;;9.93;2.92;;;18.00;74.00;;;;;;10361257;28;20079;-57
2021/10/30 08:17:26;;;;;;;7.65;2.88;;;17.90;73.70;;;;;;10350759;28;20099;-55
2021/10/30 08:22:27;;;;;;;12.95;2.80;;;17.90;73.80;;;;;;10335232;28;20062;-54
2021/10/30 08:27:27;;;;;;;10.10;2.92;;;18.00;73.60;;;;;;10350926;28;20105;-56
2021/10/30 08:32:28;;;;;;;11.93;3.88;;;18.10;73.30;;;;;;10360835;28;20117;-57
2021/10/30 08:37:29;;;;;;;6.18;2.40;;;18.00;73.10;;;;;;10371042;28;20076;-55
2021/10/30 08:42:31;;;;;;;7.93;2.67;;;18.00;73.10;;;;;;10367408;28;20069;-56
2021/10/30 08:47:33;;;;;;;9.57;2.83;;;18.00;73.20;;;;;;10367730;28;20432;-53
2021/10/30 08:52:36;;;;;;;5.10;1.88;;;17.90;73.10;;;;;;10367265;28;20053;-57
2021/10/30 08:57:38;;;;;;;5.38;2.05;;;17.90;73.10;;;;;;10373052;28;20033;-56
2021/10/30 09:02:39;;;;;;;6.22;2.22;;;17.90;72.80;;;;;;10373528;28;20049;-56
2021/10/30 09:07:42;;;;;;;9.45;2.75;;;18.00;72.50;;;;;;10373213;28;20428;-57
2021/10/30 09:12:55;;;;;;;5.03;2.38;;;18.00;72.40;;;;;;10373038;28;20026;-56
2021/10/30 09:17:56;;;;;;;5.57;2.40;;;18.00;72.50;;;;;;10362676;28;20046;-57
2021/10/30 09:22:56;;;;;;;6.25;1.92;;;18.10;72.20;;;;;;10332465;28;20022;-57
2021/10/30 09:28:02;;;;;;;9.48;2.10;;;18.10;71.90;;;;;;10350956;28;20034;-57
2021/10/30 09:33:06;;;;;;;6.75;2.50;;;18.10;71.90;;;;;;10359794;28;20037;-57
2021/10/30 09:38:31;;;;;;;4.90;2.40;;;18.20;71.90;;;;;;10371084;28;20030;-57
2021/10/30 09:43:32;;;;;;;5.57;2.63;;;18.20;71.60;;;;;;10371987;28;20050;-57
2021/10/30 09:48:42;;;;;;;4.88;2.00;;;18.20;71.60;;;;;;10371930;28;20041;-56
2021/10/30 09:53:43;;;;;;;5.70;2.17;;;18.20;71.70;;;;;;10371934;28;20045;-57
2021/10/30 09:58:46;;;;;;;3.55;2.30;;;18.10;71.70;;;;;;10371670;28;20407;-55
2021/10/30 10:03:49;;;;;;;4.40;1.98;;;18.00;71.80;;;;;;10371553;28;20030;-56
2021/10/30 10:08:51;;;;;;;4.85;1.95;;;18.10;72.00;;;;;;10371478;28;20034;-56
2021/10/30 10:13:52;;;;;;;4.20;2.08;;;18.00;71.90;;;;;;10371339;28;20113;-57
2021/10/30 10:18:58;;;;;;;3.83;1.77;;;18.00;72.00;;;;;;10353854;28;20086;-56
2021/10/30 10:24:01;;;;;;;3.65;2.03;;;18.00;71.70;;;;;;10331878;28;20077;-57
2021/10/30 10:29:05;;;;;;;4.65;2.25;;;18.10;71.60;;;;;;10368220;28;20026;-56
2021/10/30 10:34:20;;;;;;;5.68;2.38;;;18.20;71.40;;;;;;10367606;28;20394;-54
2021/10/30 10:39:21;;;;;;;8.35;2.17;;;18.20;71.20;;;;;;10380048;28;20080;-58
2021/10/30 10:44:28;;;;;;;8.85;2.60;;;18.20;71.70;;;;;;10360730;28;20038;-54
2021/10/30 10:49:41;;;;;;;14.80;3.25;;;18.20;72.50;;;;;;10357872;28;20050;-57
2021/10/30 10:54:54;;;;;;;16.73;3.08;;;18.40;72.20;;;;;;10362316;28;20029;-58
2021/10/30 11:00:07;;;;;;;16.58;3.00;;;18.40;71.90;;;;;;10342254;28;20578;-58
2021/10/30 11:05:07;;;;;;;13.38;3.08;;;18.40;71.90;;;;;;10373725;28;20029;-57
2021/10/30 11:10:17;;;;;;;14.50;3.47;;;18.30;72.10;;;;;;10376350;28;20034;-58
2021/10/30 11:15:20;;;;;;;;;;;18.30;72.20;;;;;;10375662;28;20551;-58
2021/10/30 11:20:33;;;;;;;9.93;3.35;;;18.20;72.80;;;;;;10346590;28;19933;-59
2021/10/30 11:25:33;;;;;;;11.70;3.20;;;18.20;72.80;;;;;;10362808;28;20381;-60
2021/10/30 11:30:43;;;;;;;18.63;3.15;;;18.20;73.10;;;;;;10351328;28;20024;-58
2021/10/30 11:36:01;;;;;;;12.32;3.17;;;18.20;73.60;;;;;;10337150;28;20030;-58
2021/10/30 11:41:06;;;;;;;11.35;3.47;;;18.20;74.10;;;;;;10350957;28;20133;-57
2021/10/30 11:46:12;;;;;;;9.00;4.28;;;18.10;74.70;;;;;;10362563;28;20024;-57
2021/10/30 11:51:16;;;;;;;12.15;3.63;;;18.10;74.70;;;;;;10350604;28;20041;-58
2021/10/30 11:56:26;;;;;;;10.23;3.75;;;18.30;73.90;;;;;;10355178;28;20065;-58
2021/10/30 12:01:30;;;;;;;12.30;3.40;;;18.60;73.10;;;;;;10372734;28;20038;-58
2021/10/30 12:06:39;;;;;;;9.52;3.17;;;18.80;72.00;;;;;;10376426;28;20084;-59
2021/10/30 12:11:40;;;;;;;6.80;3.80;;;18.90;72.10;;;;;;10375621;28;20033;-57
2021/10/30 12:16:41;;;;;;;10.25;3.80;;;18.90;72.30;;;;;;10373240;28;20089;-57
2021/10/30 12:21:42;;;;;;;10.07;3.25;;;18.80;72.40;;;;;;10341786;28;20034;-57
2021/10/30 12:26:58;;;;;;;11.35;4.05;;;18.70;72.80;;;;;;10349592;28;20022;-57
2021/10/30 12:32:06;;;;;;;20.50;4.25;;;18.70;73.10;;;;;;10335086;28;20035;-56
2021/10/30 12:37:13;;;;;;;13.43;3.20;;;18.70;73.20;;;;;;10333600;28;20027;-56
2021/10/30 12:42:16;;;;;;;9.35;2.92;;;18.70;73.60;;;;;;10334559;28;20089;-57
2021/10/30 12:47:17;;;;;;;15.90;3.70;;;18.50;73.50;;;;;;10349696;28;20105;-58
2021/10/30 12:52:18;;;;;;;14.38;5.28;;;18.40;73.30;;;;;;10342279;28;20439;-57
2021/10/30 12:57:27;;;;;;;4.90;2.47;;;18.40;74.10;;;;;;10333804;28;20121;-58
2021/10/30 13:02:28;;;;;;;10.67;3.20;;;18.40;73.70;;;;;;10350421;28;20029;-57
2021/10/30 13:07:29;;;;;;;6.53;2.55;;;18.40;73.70;;;;;;10367476;28;20026;-58
2021/10/30 13:12:30;;;;;;;9.02;2.67;;;18.40;73.10;;;;;;10348444;28;20164;-58
2021/10/30 13:17:30;;;;;;;6.93;2.65;;;18.30;73.30;;;;;;10339796;28;20125;-59
2021/10/30 13:22:31;;;;;;;7.10;2.80;;;18.30;73.10;;;;;;10328833;28;20053;-59
2021/10/30 13:27:32;;;;;;;4.63;2.25;;;18.30;73.20;;;;;;10350730;28;20121;-58
2021/10/30 13:32:33;;;;;;;6.18;2.78;;;18.30;73.20;;;;;;10328647;28;20430;-57
2021/10/30 13:37:34;;;;;;;8.57;2.20;;;18.30;73.50;;;;;;10325935;28;20049;-56
2021/10/30 13:42:39;;;;;;;6.65;2.40;;;18.20;73.50;;;;;;10325630;28;20133;-57
2021/10/30 13:47:40;;;;;;;4.45;2.35;;;18.20;73.70;;;;;;10341283;28;20026;-58
2021/10/30 13:52:41;;;;;;;5.50;2.17;;;18.10;73.70;;;;;;10331597;28;20109;-57
2021/10/30 13:57:42;;;;;;;6.45;2.25;;;18.10;73.90;;;;;;10331303;28;20065;-58
2021/10/30 14:02:42;;;;;;;7.32;2.95;;;18.10;74.00;;;;;;10350178;28;20482;-58
2021/10/30 14:07:43;;;;;;;5.43;2.05;;;18.00;74.00;;;;;;10369945;28;20034;-58
2021/10/30 14:12:44;;;;;;;6.18;2.30;;;18.00;74.10;;;;;;10370162;28;20111;-58
2021/10/30 14:17:44;;;;;;;5.18;2.00;;;18.00;74.10;;;;;;10360953;28;20599;-59
2021/10/30 14:22:45;;;;;;;4.18;1.95;;;18.00;74.30;;;;;;10341779;28;20030;-58
2021/10/30 14:27:46;;;;;;;4.93;1.77;;;18.00;74.40;;;;;;10352680;28;20101;-57
2021/10/30 14:32:47;;;;;;;4.55;2.40;;;17.90;74.40;;;;;;10371741;28;20072;-58
2021/10/30 14:37:48;;;;;;;5.35;2.58;;;17.90;74.30;;;;;;10370191;28;20060;-58
2021/10/30 14:42:48;;;;;;;5.15;1.90;;;17.80;74.30;;;;;;10371033;28;20100;-59
2021/10/30 14:47:49;;;;;;;6.70;2.13;;;17.90;74.20;;;;;;10371167;28;20064;-58
2021/10/30 14:52:50;;;;;;;4.07;1.98;;;17.90;74.10;;;;;;10371111;28;20469;-58
2021/10/30 14:57:51;;;;;;;4.32;1.40;;;17.90;73.70;;;;;;10371001;28;20026;-58
2021/10/30 15:02:51;;;;;;;4.38;1.75;;;18.00;73.50;;;;;;10371251;28;20030;-57
2021/10/30 15:07:52;;;;;;;4.65;1.63;;;18.00;73.20;;;;;;10356086;28;20454;-58
2021/10/30 15:12:53;;;;;;;6.13;1.85;;;18.00;73.20;;;;;;10371153;28;20120;-59
2021/10/30 15:17:54;;;;;;;4.90;2.10;;;18.00;73.30;;;;;;10360052;28;20070;-58
2021/10/30 15:22:55;;;;;;;5.45;1.77;;;18.10;73.20;;;;;;10330187;28;20125;-58
2021/10/30 15:27:56;;;;;;;6.35;2.13;;;18.20;72.80;;;;;;10361140;28;20065;-57
2021/10/30 15:32:57;;;;;;;5.57;2.13;;;18.20;72.60;;;;;;10375312;28;20370;-59
2021/10/30 15:37:58;;;;;;;4.53;1.80;;;18.20;72.50;;;;;;10375289;28;20116;-58
2021/10/30 15:42:59;;;;;;;4.80;1.48;;;18.30;72.00;;;;;;10374093;28;20168;-57
2021/10/30 15:48:00;;;;;;;3.45;1.55;;;18.40;71.90;;;;;;10370179;28;20065;-58
2021/10/30 15:53:01;;;;;;;4.00;1.60;;;18.30;72.00;;;;;;10371211;28;20033;-58
2021/10/30 15:58:02;;;;;;;4.88;2.35;;;18.30;72.10;;;;;;10371707;28;20037;-58
2021/10/30 16:03:03;;;;;;;2.78;1.55;;;18.30;72.30;;;;;;10373243;28;20030;-58
2021/10/30 16:08:04;;;;;;;2.63;1.45;;;18.20;72.40;;;;;;10375502;28;20394;-59
2021/10/30 16:13:06;;;;;;;4.30;1.52;;;18.20;72.60;;;;;;10373122;28;20057;-59
2021/10/30 16:18:07;;;;;;;7.10;2.65;;;18.20;72.80;;;;;;10367008;28;20072;-59
2021/10/30 16:23:08;;;;;;;12.02;3.63;;;18.20;73.10;;;;;;10373064;28;20030;-59
2021/10/30 16:28:12;;;;;;;9.43;4.50;;;18.40;72.90;;;;;;10372015;28;20036;-58
2021/10/30 16:33:13;;;;;;;6.85;3.42;;;18.50;72.10;;;;;;10374278;28;20033;-58
2021/10/30 16:38:14;;;;;;;12.45;5.95;;;18.50;72.10;;;;;;10371565;28;20042;-57
2021/10/30 16:43:19;;;;;;;6.95;3.55;;;18.50;74.20;;;;;;10372561;28;20516;-56
2021/10/30 16:48:20;;;;;;;9.60;2.60;;;18.50;74.10;;;;;;10358023;28;20045;-55
2021/10/30 16:53:21;;;;;;;9.60;3.00;;;18.60;75.50;;;;;;10334510;28;20025;-57
2021/10/30 16:58:22;;;;;;;10.93;2.28;;;18.80;75.50;;;;;;10332561;28;20394;-56
2021/10/30 17:03:22;;;;;;;9.88;3.35;;;18.80;74.40;;;;;;10348034;28;20508;-56
2021/10/30 17:08:23;;;;;;;8.93;2.78;;;18.70;74.00;;;;;;10363619;28;20108;-53
2021/10/30 17:13:24;;;;;;;8.57;3.13;;;18.70;74.70;;;;;;10370658;28;20453;-57
2021/10/30 17:18:25;;;;;;;6.35;2.67;;;18.70;74.40;;;;;;10387346;28;20449;-58
2021/10/30 17:23:26;;;;;;;14.45;2.72;;;18.60;74.60;;;;;;10371144;28;20057;-57
2021/10/30 17:28:27;;;;;;;30.90;3.38;;;18.50;74.70;;;;;;10344819;28;20525;-57
2021/10/30 17:33:27;;;;;;;19.95;3.47;;;18.40;75.40;;;;;;10353592;28;20071;-58
2021/10/30 17:38:28;;;;;;;20.30;3.88;;;18.40;75.60;;;;;;10370457;28;20045;-57
2021/10/30 17:43:29;;;;;;;10.43;2.78;;;18.40;75.90;;;;;;10371761;28;20164;-57
2021/10/30 17:48:31;;;;;;;10.68;2.45;;;18.40;75.60;;;;;;10370071;28;20482;-58
2021/10/30 17:53:31;;;;;;;16.30;2.50;;;18.30;75.50;;;;;;10372073;28;20041;-58
2021/10/30 17:58:32;;;;;;;10.88;3.22;;;18.30;75.50;;;;;;10372861;28;20101;-58
2021/10/30 18:03:33;;;;;;;11.10;3.83;;;18.20;75.50;;;;;;10371573;28;20037;-58
2021/10/30 18:08:34;;;;;;;13.30;2.70;;;18.20;75.70;;;;;;10370804;28;20022;-59
2021/10/30 18:13:35;;;;;;;13.18;2.72;;;18.20;75.80;;;;;;10359486;28;20462;-57
2021/10/30 18:18:38;;;;;;;9.55;2.20;;;18.20;75.70;;;;;;10360062;28;20030;-59
2021/10/30 18:23:40;;;;;;;6.68;2.78;;;18.20;75.50;;;;;;10385990;28;20081;-58
2021/10/30 18:28:41;;;;;;;7.85;2.83;;;18.20;75.50;;;;;;10366872;28;20026;-59
2021/10/30 18:33:43;;;;;;;4.95;1.95;;;18.10;75.60;;;;;;10367768;28;20393;-59
2021/10/30 18:38:44;;;;;;;8.90;2.45;;;18.10;75.80;;;;;;10371588;28;20026;-59
2021/10/30 18:43:45;;;;;;;9.65;2.78;;;18.10;75.70;;;;;;10370074;28;20052;-53
2021/10/30 18:48:46;;;;;;;10.65;2.20;;;18.00;76.00;;;;;;10369369;28;20034;-58
2021/10/30 18:53:47;;;;;;;8.25;2.40;;;18.00;75.90;;;;;;10368853;28;20038;-57
2021/10/30 18:58:49;;;;;;;13.80;2.35;;;18.00;76.00;;;;;;10365327;28;20022;-57
2021/10/30 19:03:50;;;;;;;4.35;1.85;;;18.00;76.10;;;;;;10364470;28;20025;-58
2021/10/30 19:08:50;;;;;;;6.47;2.28;;;18.00;76.10;;;;;;10375659;28;20458;-58
2021/10/30 19:13:51;;;;;;;5.35;2.38;;;18.00;76.20;;;;;;10354270;28;20514;-56
2021/10/30 19:18:52;;;;;;;6.10;2.05;;;18.00;76.30;;;;;;10375238;28;20037;-59
2021/10/30 19:23:53;;;;;;;7.72;2.85;;;18.00;76.20;;;;;;10373894;28;20041;-58
2021/10/30 19:28:56;;;;;;;7.75;2.28;;;18.00;76.20;;;;;;10374802;28;20378;-58
2021/10/30 19:33:57;;;;;;;7.85;2.47;;;18.00;76.40;;;;;;10373021;28;20033;-57
2021/10/30 19:38:58;;;;;;;7.05;2.53;;;18.00;76.40;;;;;;10374113;28;20109;-58
2021/10/30 19:44:00;;;;;;;9.65;2.42;;;18.00;76.40;;;;;;10373538;28;20049;-58
2021/10/30 19:49:01;;;;;;;9.75;2.30;;;18.00;76.50;;;;;;10373821;28;20033;-58
2021/10/30 19:54:02;;;;;;;5.00;1.77;;;18.00;76.50;;;;;;10374103;28;20457;-58
2021/10/30 19:59:04;;;;;;;7.00;1.77;;;17.90;76.50;;;;;;10371039;28;20030;-58
2021/10/30 20:04:15;;;;;;;4.90;1.60;;;17.90;76.50;;;;;;10385474;28;20541;-58
2021/10/30 20:09:15;;;;;;;4.50;1.52;;;18.00;76.50;;;;;;10371812;28;20516;-58
2021/10/30 20:14:17;;;;;;;6.18;1.73;;;17.90;76.40;;;;;;10370160;28;20030;-55
2021/10/30 20:19:19;;;;;;;7.40;1.38;;;18.00;76.60;;;;;;10370309;28;20025;-56
2021/10/30 20:24:20;;;;;;;7.75;1.83;;;18.00;76.50;;;;;;10366538;28;20022;-57
2021/10/30 20:29:21;;;;;;;3.95;2.05;;;17.90;76.40;;;;;;10341981;28;20080;-58
2021/10/30 20:34:24;;;;;;;6.47;2.03;;;17.90;76.50;;;;;;10334155;28;20041;-58
2021/10/30 20:39:28;;;;;;;5.40;1.60;;;17.80;76.40;;;;;;10333344;28;20022;-58
2021/10/30 20:44:30;;;;;;;5.40;2.08;;;17.80;76.40;;;;;;10334869;28;20054;-58
2021/10/30 20:49:31;;;;;;;4.85;1.77;;;17.80;76.50;;;;;;10334120;28;20026;-58
2021/10/30 20:54:32;;;;;;;4.90;1.55;;;17.80;76.50;;;;;;10334589;28;20356;-58
2021/10/30 20:59:33;;;;;;;4.22;1.50;;;17.70;76.50;;;;;;10334376;28;20030;-58
2021/10/30 21:04:33;;;;;;;6.25;1.63;;;17.70;76.50;;;;;;10367836;28;20057;-58
2021/10/30 21:09:34;;;;;;;3.42;1.55;;;17.70;76.70;;;;;;10374243;28;20458;-58
2021/10/30 21:14:35;;;;;;;3.03;1.50;;;17.70;76.50;;;;;;10374482;28;20514;-59
2021/10/30 21:19:35;;;;;;;3.38;1.63;;;17.70;76.50;;;;;;10372800;28;20496;-58
2021/10/30 21:24:36;;;;;;;3.97;1.73;;;17.60;76.40;;;;;;10367629;28;20097;-59
2021/10/30 21:29:37;;;;;;;5.22;1.75;;;17.70;76.40;;;;;;10343108;28;20026;-58
2021/10/30 21:34:38;;;;;;;3.58;1.50;;;17.60;76.40;;;;;;10333086;28;20378;-58
2021/10/30 21:39:40;;;;;;;3.70;1.73;;;17.60;76.40;;;;;;10331629;28;20470;-58
2021/10/30 21:44:41;;;;;;;3.97;1.60;;;17.60;76.40;;;;;;10332624;28;20545;-58
2021/10/30 21:49:42;;;;;;;3.60;1.45;;;17.60;76.30;;;;;;10331716;28;20060;-59
2021/10/30 21:54:42;;;;;;;2.15;1.33;;;17.60;76.30;;;;;;10332459;28;20106;-58
2021/10/30 21:59:43;;;;;;;3.13;1.52;;;17.60;76.30;;;;;;10332139;28;20030;-59
2021/10/30 22:04:44;;;;;;;4.68;1.95;;;17.60;76.40;;;;;;10367460;28;20107;-58
2021/10/30 22:09:47;;;;;;;4.68;1.77;;;17.60;76.30;;;;;;10372203;28;20370;-58
2021/10/30 22:14:47;;;;;;;2.60;1.25;;;17.60;76.30;;;;;;10371483;28;20034;-58
2021/10/30 22:19:48;;;;;;;7.50;1.48;;;17.60;76.20;;;;;;10372207;28;20113;-58
2021/10/30 22:24:49;;;;;;;2.83;1.85;;;17.50;76.20;;;;;;10364509;28;20176;-58
2021/10/30 22:29:50;;;;;;;4.65;1.55;;;17.50;76.10;;;;;;10342327;28;20030;-58
2021/10/30 22:34:51;;;;;;;5.22;1.52;;;17.50;76.10;;;;;;10331861;28;20035;-57
2021/10/30 22:39:52;;;;;;;4.28;1.27;;;17.50;76.10;;;;;;10339648;28;20038;-58
2021/10/30 22:44:53;;;;;;;2.97;1.30;;;17.50;76.00;;;;;;10335579;28;20042;-59
2021/10/30 22:49:54;;;;;;;3.83;1.40;;;17.50;76.00;;;;;;10336738;28;20066;-59
2021/10/30 22:54:54;;;;;;;3.55;1.35;;;17.50;76.00;;;;;;10336627;28;20049;-58
2021/10/30 22:59:55;;;;;;;2.53;1.30;;;17.50;76.00;;;;;;10335002;28;20064;-57
2021/10/30 23:04:56;;;;;;;4.32;1.40;;;17.50;76.60;;;;;;10361342;28;20033;-58
2021/10/30 23:09:57;;;;;;;2.75;1.35;;;17.50;76.00;;;;;;10370693;28;20172;-58
2021/10/30 23:14:58;;;;;;;3.10;1.23;;;17.40;75.90;;;;;;10376560;28;20018;-59
2021/10/30 23:19:58;;;;;;;3.97;1.48;;;17.50;76.00;;;;;;10376163;28;20037;-58
2021/10/30 23:25:00;;;;;;;2.70;1.50;;;17.40;76.00;;;;;;10367011;28;20093;-58
2021/10/30 23:30:00;;;;;;;2.30;1.35;;;17.40;76.00;;;;;;10344714;28;20038;-59
2021/10/30 23:35:02;;;;;;;2.25;1.27;;;17.40;76.00;;;;;;10348410;28;20035;-58
2021/10/30 23:40:04;;;;;;;2.80;1.60;;;17.40;75.90;;;;;;10335213;28;20042;-58
2021/10/30 23:45:06;;;;;;;3.10;1.27;;;17.40;75.90;;;;;;10301009;28;1046256;-58
2021/10/30 23:50:08;;;;;;;3.05;1.38;;;17.40;75.80;;;;;;10342066;28;20041;-58
2021/10/30 23:55:09;;;;;;;2.67;1.60;;;17.40;75.90;;;;;;10377738;28;20081;-59
